Airfield :
LOGIN :

Register | Disclaimer

   EN    FR    IT 

 










Legend :    VFR   Marginal VFR   IFR   Intensive IFR   Very Intensive IFR
Visi :
Ceiling :
>= 8 km
>= 3000ft
5 to 8 km
1000 to 3000 ft
1500m to 5 km
500 to 1000 ft
800 to 1500m
200 to 500 ft
< 800m
< 200 ft
Symbols :   Thunderstorms  Fog  Heavy snow  Heavy precipitations  Wind > 20 kt
SIGMETs :     Misc.  Thunderstorms  Icing  Turbulence  Mountain Waves  Volcanic Ashes







- Airport Elevation : 257 ft
- IATA code : MAN
- Download approach charts


EGCC - Manchester

CURRENT METAR :
  • 162350Z AUTO 28005KT 9999 SCT022 14/13 Q1014

EXPIRED METARs :
  • 162320Z AUTO 29006KT 9999 SCT007 BKN021 15/13 Q1014
  • 162250Z AUTO 27005KT 9999 BKN005 OVC013 15/14 Q1014 BECMG SCT005 BKN014
  • 162220Z AUTO 27006KT 9999 BKN004 OVC016 15/14 Q1014 BECMG SCT010
  • 162150Z AUTO 26005KT 9999 BKN004 OVC017 15/14 Q1014 BECMG SCT010
  • 162120Z 27005KT 9999 SCT004 BKN009 15/14 Q1013
  • 162050Z 32004KT 9999 SCT006 15/14 Q1013

TAF TAF EGCC
Valid from the 17 at 00:00 until the 18 at 06:00 UTC


162255Z 1700/1806 23004KT 9999 SCT040
TEMPO 1700/1708 BKN014
PROB30
TEMPO 1700/1701 BKN005
ATIS : +44 161 499 2324
No reported NOTAMs for that airfield.
1 SIGMET reported for the London FIR (EGTT) :
 
Embedded thunderstorms
EGTT SIGMET 07 VALID 162300/170200 EGRR
EGTT LONDON FIR EMBD TS FCST WI N5500 W00038 - N5413 E00006 - N5348 E00017 - N5351 W00022 - N5500 W00210 - N5500 W00038 TOP FL300 MOV NE 10KT NC=



MET'MAP, your aeronautical weather chart ! - Copyright ORBIFLY December 2007 - Disclaimer

ORBIFLY MET'MAP TEAM :

Programming & Development : Alexandra Zaïnal
Concept & Development : Baudouin d'Aumeries
Co-Development & Prog : Marc-Olivier Méhu
Technical & hardware support : Manuel Goepfert

Contact : metmap@orbifly.com




SOURCES & CREDITS :

   NOAA